Time;durP1;ratioP1;P1;durP2;ratioP2;P2;SDS_P1;SDS_P2;PMS_P1;PMS_P2;Temp;Humidity;BMP_temperature;BMP_pressure;BME280_temperature;BME280_humidity;BME280_pressure;Samples;Min_cycle;Max_cycle;Signal;HPM_P1;HPM_P2
2023/07/12 00:00:51;;;;;;;7.63;4.43;;;;;;;;;;745522;186;938125;-56
2023/07/12 00:03:17;;;;;;;5.60;3.90;;;;;;;;;;736381;188;942964;-57
2023/07/12 00:05:43;;;;;;;8.70;4.80;;;;;;;;;;732469;188;918924;-56
2023/07/12 00:08:20;;;;;;;6.60;4.80;;;;;;;;;;724337;191;919403;-58
2023/07/12 00:10:46;;;;;;;8.53;5.43;;;;;;;;;;729116;192;922598;-58
2023/07/12 00:13:11;;;;;;;6.80;4.97;;;;;;;;;;714143;194;920141;-55
2023/07/12 00:15:37;;;;;;;7.00;4.10;;;;;;;;;;732342;187;920275;-56
2023/07/12 00:18:03;;;;;;;6.10;4.30;;;;;;;;;;735481;187;920079;-57
2023/07/12 00:20:29;;;;;;;6.53;4.47;;;;;;;;;;737319;187;916144;-56
2023/07/12 00:22:55;;;;;;;6.97;4.40;;;;;;;;;;737713;187;919787;-55
2023/07/12 00:25:21;;;;;;;7.90;4.03;;;;;;;;;;729723;188;918690;-58
2023/07/12 00:27:46;;;;;;;8.47;5.27;;;;;;;;;;742519;188;920247;-57
2023/07/12 00:30:16;;;;;;;8.93;5.13;;;;;;;;;;736420;189;903508;-56
2023/07/12 00:32:42;;;;;;;9.00;4.57;;;;;;;;;;743868;187;919419;-55
2023/07/12 00:35:08;;;;;;;6.53;4.57;;;;;;;;;;742754;188;919529;-58
2023/07/12 00:37:34;;;;;;;7.77;5.13;;;;;;;;;;739191;187;920111;-58
2023/07/12 00:39:59;;;;;;;7.80;4.57;;;;;;;;;;737213;187;919902;-57
2023/07/12 00:42:26;;;;;;;6.90;5.50;;;;;;;;;;731685;188;921463;-55
2023/07/12 00:44:52;;;;;;;8.00;4.73;;;;;;;;;;743514;189;819284;-56
2023/07/12 00:47:18;;;;;;;11.13;5.50;;;;;;;;;;738015;189;820685;-57
2023/07/12 00:49:44;;;;;;;7.43;4.90;;;;;;;;;;735819;189;916945;-58
2023/07/12 00:52:10;;;;;;;5.90;4.40;;;;;;;;;;717139;195;865503;-58
2023/07/12 00:54:42;;;;;;;6.00;5.00;;;;;;;;;;729859;191;919244;-56
2023/07/12 00:57:08;;;;;;;6.83;4.50;;;;;;;;;;731191;188;880569;-56
2023/07/12 00:59:34;;;;;;;8.27;4.67;;;;;;;;;;735052;187;924011;-56
2023/07/12 01:01:59;;;;;;;6.83;6.10;;;;;;;;;;741293;189;919136;-57
2023/07/12 01:04:26;;;;;;;8.60;4.83;;;;;;;;;;711077;195;918579;-57
2023/07/12 01:06:52;;;;;;;5.10;4.13;;;;;;;;;;712014;194;817527;-58
2023/07/12 01:09:18;;;;;;;10.00;4.60;;;;;;;;;;737362;188;919629;-55
2023/07/12 01:11:45;;;;;;;6.63;4.47;;;;;;;;;;736065;187;919880;-55
2023/07/12 01:14:09;;;;;;;8.07;4.70;;;;;;;;;;718817;191;918967;-57
2023/07/12 01:16:36;;;;;;;7.17;5.43;;;;;;;;;;745946;187;920749;-58
2023/07/12 01:19:01;;;;;;;8.40;4.50;;;;;;;;;;740383;187;919197;-55
2023/07/12 01:21:31;;;;;;;6.30;4.23;;;;;;;;;;741059;187;851333;-56
2023/07/12 01:23:53;;;;;;;6.43;4.80;;;;;;;;;;729556;189;917080;-56
2023/07/12 01:26:19;;;;;;;6.60;5.00;;;;;;;;;;741190;188;917742;-57
2023/07/12 01:28:45;;;;;;;9.60;4.90;;;;;;;;;;734236;187;918360;-58
2023/07/12 01:31:11;;;;;;;6.57;5.07;;;;;;;;;;729822;187;919316;-57
2023/07/12 01:33:36;;;;;;;6.73;5.40;;;;;;;;;;739752;189;920086;-59
2023/07/12 01:36:02;;;;;;;11.07;5.22;;;;;;;;;;736773;188;919148;-56
2023/07/12 01:38:28;;;;;;;10.07;5.37;;;;;;;;;;732853;189;920984;-58
2023/07/12 01:40:54;;;;;;;9.00;6.63;;;;;;;;;;737253;189;919375;-57
2023/07/12 01:43:20;;;;;;;8.47;6.03;;;;;;;;;;736569;188;916728;-55
2023/07/12 01:45:46;;;;;;;9.60;5.53;;;;;;;;;;735166;187;916644;-56
2023/07/12 01:48:11;;;;;;;20.60;7.50;;;;;;;;;;737979;188;919871;-56
2023/07/12 01:50:37;;;;;;;7.00;6.03;;;;;;;;;;744695;187;921066;-56
2023/07/12 01:53:03;;;;;;;9.20;6.80;;;;;;;;;;735774;187;918741;-56
2023/07/12 01:55:29;;;;;;;7.77;6.20;;;;;;;;;;735153;188;918261;-56
2023/07/12 01:57:55;;;;;;;7.47;5.30;;;;;;;;;;740704;189;919046;-58
2023/07/12 02:00:21;;;;;;;7.33;4.80;;;;;;;;;;715604;194;913520;-58
2023/07/12 02:02:46;;;;;;;11.07;7.20;;;;;;;;;;721484;191;920062;-58
2023/07/12 02:05:12;;;;;;;6.23;4.50;;;;;;;;;;723049;194;842862;-58
2023/07/12 02:07:38;;;;;;;7.70;5.57;;;;;;;;;;716155;193;924704;-58
2023/07/12 02:10:06;;;;;;;15.20;5.17;;;;;;;;;;720199;191;912416;-57
2023/07/12 02:12:32;;;;;;;8.30;6.03;;;;;;;;;;739580;187;926150;-56
2023/07/12 02:14:58;;;;;;;11.10;5.37;;;;;;;;;;735812;189;918891;-56
2023/07/12 02:17:23;;;;;;;10.00;5.60;;;;;;;;;;740987;187;818070;-56
2023/07/12 02:19:49;;;;;;;7.13;5.57;;;;;;;;;;740164;187;920595;-56
2023/07/12 02:22:15;;;;;;;9.00;5.50;;;;;;;;;;741760;189;817041;-57
2023/07/12 02:24:41;;;;;;;9.00;5.70;;;;;;;;;;735070;189;918323;-56
2023/07/12 02:27:07;;;;;;;7.63;5.77;;;;;;;;;;740730;187;919319;-58
2023/07/12 02:29:33;;;;;;;9.97;6.00;;;;;;;;;;740004;189;819792;-56
2023/07/12 02:31:58;;;;;;;15.13;6.97;;;;;;;;;;738239;188;919381;-56
2023/07/12 02:34:24;;;;;;;7.87;5.20;;;;;;;;;;719341;195;816908;-57
2023/07/12 02:36:50;;;;;;;10.57;5.23;;;;;;;;;;719115;194;817485;-56
2023/07/12 02:39:16;;;;;;;7.12;5.93;;;;;;;;;;720521;194;918815;-55
2023/07/12 02:41:42;;;;;;;7.23;4.90;;;;;;;;;;741770;187;910382;-55
2023/07/12 02:44:08;;;;;;;9.80;5.53;;;;;;;;;;734546;188;943996;-56
2023/07/12 02:46:33;;;;;;;8.77;5.60;;;;;;;;;;739782;189;883813;-57
2023/07/12 02:48:59;;;;;;;10.57;5.50;;;;;;;;;;737851;187;919757;-56
2023/07/12 02:51:25;;;;;;;8.02;5.35;;;;;;;;;;734766;189;918823;-58
2023/07/12 02:53:51;;;;;;;10.93;6.43;;;;;;;;;;731147;192;920394;-56
2023/07/12 02:56:17;;;;;;;9.47;5.83;;;;;;;;;;714100;193;918571;-56
2023/07/12 02:58:43;;;;;;;8.85;5.00;;;;;;;;;;720500;190;918485;-55
2023/07/12 03:01:09;;;;;;;14.87;6.23;;;;;;;;;;736266;188;1116481;-60
2023/07/12 03:03:34;;;;;;;11.50;6.00;;;;;;;;;;729928;188;918573;-56
2023/07/12 03:06:02;;;;;;;9.37;5.33;;;;;;;;;;741138;187;968365;-55
2023/07/12 03:08:27;;;;;;;16.43;7.00;;;;;;;;;;733167;189;925980;-57
2023/07/12 03:10:53;;;;;;;9.57;7.20;;;;;;;;;;718769;194;819472;-57
2023/07/12 03:13:18;;;;;;;8.40;6.00;;;;;;;;;;708774;194;820654;-55
2023/07/12 03:15:44;;;;;;;13.18;7.15;;;;;;;;;;729354;188;919317;-56
2023/07/12 03:18:10;;;;;;;9.23;6.07;;;;;;;;;;734455;189;918997;-58
2023/07/12 03:20:36;;;;;;;13.03;6.40;;;;;;;;;;742508;187;930435;-56
2023/07/12 03:23:02;;;;;;;9.23;6.00;;;;;;;;;;740519;187;917275;-55
2023/07/12 03:25:28;;;;;;;10.90;6.72;;;;;;;;;;736776;188;918840;-56
2023/07/12 03:27:54;;;;;;;15.67;6.30;;;;;;;;;;748188;185;919108;-56
2023/07/12 03:30:20;;;;;;;8.00;6.60;;;;;;;;;;737905;188;924017;-55
2023/07/12 03:32:46;;;;;;;14.03;6.47;;;;;;;;;;735659;189;859122;-58
2023/07/12 03:35:12;;;;;;;8.67;6.30;;;;;;;;;;744313;188;863971;-56
2023/07/12 03:37:37;;;;;;;8.87;6.60;;;;;;;;;;732464;188;919144;-58
2023/07/12 03:40:03;;;;;;;14.23;6.77;;;;;;;;;;739605;187;918872;-56
2023/07/12 03:42:29;;;;;;;11.50;6.40;;;;;;;;;;745962;187;915675;-58
2023/07/12 03:44:55;;;;;;;10.07;6.47;;;;;;;;;;737981;188;918514;-57
2023/07/12 03:47:21;;;;;;;8.63;6.47;;;;;;;;;;735467;188;916570;-57
2023/07/12 03:49:48;;;;;;;7.25;6.15;;;;;;;;;;737548;189;876496;-58
2023/07/12 03:52:13;;;;;;;11.30;5.67;;;;;;;;;;734610;188;897895;-56
2023/07/12 03:54:39;;;;;;;8.67;6.10;;;;;;;;;;739686;187;939173;-58
2023/07/12 03:57:05;;;;;;;10.57;6.35;;;;;;;;;;735001;188;919227;-56
2023/07/12 03:59:31;;;;;;;8.43;6.10;;;;;;;;;;739809;188;919148;-56
2023/07/12 04:01:57;;;;;;;8.67;5.60;;;;;;;;;;736028;187;920366;-56
2023/07/12 04:04:23;;;;;;;8.33;5.83;;;;;;;;;;736086;187;919669;-56
2023/07/12 04:06:48;;;;;;;17.70;7.10;;;;;;;;;;739510;189;919358;-57
2023/07/12 04:09:14;;;;;;;14.40;7.80;;;;;;;;;;716994;192;916616;-57
2023/07/12 04:11:41;;;;;;;14.73;6.10;;;;;;;;;;718643;192;919530;-58
2023/07/12 04:14:06;;;;;;;9.10;6.10;;;;;;;;;;725187;191;913100;-58
2023/07/12 04:16:32;;;;;;;11.27;6.63;;;;;;;;;;721122;191;921016;-56
2023/07/12 04:18:58;;;;;;;10.27;5.97;;;;;;;;;;742390;187;918246;-57
2023/07/12 04:21:24;;;;;;;11.33;7.07;;;;;;;;;;737260;187;918253;-58
2023/07/12 04:23:49;;;;;;;10.70;7.07;;;;;;;;;;739534;188;919423;-57
2023/07/12 04:26:17;;;;;;;9.17;6.20;;;;;;;;;;733041;187;921147;-58
2023/07/12 04:28:43;;;;;;;10.63;6.90;;;;;;;;;;735563;187;922486;-57
2023/07/12 04:31:07;;;;;;;10.07;6.60;;;;;;;;;;740363;188;941438;-63
2023/07/12 04:33:33;;;;;;;10.50;7.23;;;;;;;;;;737342;189;924009;-57
2023/07/12 04:35:59;;;;;;;12.80;8.20;;;;;;;;;;732332;189;818198;-57
2023/07/12 04:38:24;;;;;;;13.80;10.43;;;;;;;;;;738153;189;919645;-57
2023/07/12 04:40:51;;;;;;;11.27;8.40;;;;;;;;;;711875;194;911831;-58
2023/07/12 04:43:17;;;;;;;11.27;8.40;;;;;;;;;;739323;186;824267;-57
2023/07/12 04:45:43;;;;;;;8.60;7.67;;;;;;;;;;730351;189;821282;-57
2023/07/12 04:48:09;;;;;;;12.40;7.63;;;;;;;;;;721023;194;919647;-58
2023/07/12 04:50:35;;;;;;;12.37;7.40;;;;;;;;;;710749;194;947269;-58
2023/07/12 04:53:01;;;;;;;8.67;7.50;;;;;;;;;;728509;188;922745;-57
2023/07/12 04:55:26;;;;;;;10.83;5.90;;;;;;;;;;746965;187;940642;-58
2023/07/12 04:57:52;;;;;;;12.00;7.10;;;;;;;;;;740444;187;919901;-59
2023/07/12 05:00:18;;;;;;;8.03;7.20;;;;;;;;;;733317;188;919191;-59
2023/07/12 05:02:44;;;;;;;13.67;8.00;;;;;;;;;;731364;190;922877;-60
2023/07/12 05:05:11;;;;;;;8.93;6.53;;;;;;;;;;709707;193;916894;-58
2023/07/12 05:07:36;;;;;;;9.15;7.15;;;;;;;;;;723899;191;918466;-59
2023/07/12 05:10:01;;;;;;;9.97;8.03;;;;;;;;;;738744;188;923375;-58
2023/07/12 05:12:27;;;;;;;11.63;7.00;;;;;;;;;;739961;188;940802;-58
2023/07/12 05:14:53;;;;;;;10.70;7.13;;;;;;;;;;735068;187;922445;-59
2023/07/12 05:17:19;;;;;;;12.95;7.70;;;;;;;;;;740746;187;914032;-58
2023/07/12 05:19:45;;;;;;;12.70;7.27;;;;;;;;;;742546;187;919588;-59
2023/07/12 05:22:11;;;;;;;11.30;7.90;;;;;;;;;;735456;187;920065;-58
2023/07/12 05:24:36;;;;;;;12.90;8.03;;;;;;;;;;734355;189;816476;-58
2023/07/12 05:27:03;;;;;;;10.20;7.73;;;;;;;;;;743149;187;915959;-59
2023/07/12 05:29:28;;;;;;;10.20;7.63;;;;;;;;;;735691;187;919584;-61
2023/07/12 05:31:54;;;;;;;9.80;6.35;;;;;;;;;;736210;188;916168;-59
2023/07/12 05:34:20;;;;;;;13.50;7.23;;;;;;;;;;741771;189;917591;-58
2023/07/12 05:36:46;;;;;;;8.90;7.23;;;;;;;;;;734383;189;919270;-57
2023/07/12 05:39:12;;;;;;;11.40;7.30;;;;;;;;;;733284;189;915956;-58
2023/07/12 05:41:38;;;;;;;11.77;7.33;;;;;;;;;;741296;187;920080;-59
2023/07/12 05:44:03;;;;;;;10.40;7.30;;;;;;;;;;739766;189;920603;-58
2023/07/12 05:46:29;;;;;;;12.70;7.83;;;;;;;;;;733846;187;940721;-57
2023/07/12 05:48:55;;;;;;;11.57;7.23;;;;;;;;;;735016;187;917172;-57
2023/07/12 05:51:21;;;;;;;11.00;7.43;;;;;;;;;;737647;189;865769;-58
2023/07/12 05:53:47;;;;;;;10.27;7.10;;;;;;;;;;740999;187;916309;-59
2023/07/12 05:56:13;;;;;;;10.93;6.97;;;;;;;;;;737297;188;921623;-57
2023/07/12 05:58:39;;;;;;;11.10;7.90;;;;;;;;;;740017;188;920935;-57
2023/07/12 06:01:05;;;;;;;8.10;6.93;;;;;;;;;;735072;188;919638;-59
2023/07/12 06:03:30;;;;;;;11.30;7.80;;;;;;;;;;739437;187;923334;-57
2023/07/12 06:05:57;;;;;;;9.20;7.27;;;;;;;;;;732809;189;817191;-59
2023/07/12 06:08:22;;;;;;;10.93;7.33;;;;;;;;;;743055;188;818552;-59
2023/07/12 06:10:48;;;;;;;17.50;8.10;;;;;;;;;;735652;187;918789;-60
2023/07/12 06:13:14;;;;;;;7.57;6.67;;;;;;;;;;732099;189;917587;-60
2023/07/12 06:15:39;;;;;;;9.10;7.50;;;;;;;;;;739816;188;833254;-60
2023/07/12 06:18:05;;;;;;;13.03;7.10;;;;;;;;;;739274;187;918731;-60
2023/07/12 06:20:31;;;;;;;14.83;7.43;;;;;;;;;;737985;188;919247;-60
2023/07/12 06:22:57;;;;;;;8.30;7.00;;;;;;;;;;731152;191;814816;-58
2023/07/12 06:25:23;;;;;;;10.60;6.87;;;;;;;;;;714805;194;919273;-58
2023/07/12 06:27:49;;;;;;;9.93;7.20;;;;;;;;;;733275;187;919153;-58
2023/07/12 06:30:15;;;;;;;9.43;7.40;;;;;;;;;;741293;187;628342;-61
2023/07/12 06:32:40;;;;;;;9.13;7.40;;;;;;;;;;737495;189;636084;-60
2023/07/12 06:35:06;;;;;;;9.87;7.10;;;;;;;;;;733632;187;618338;-59
2023/07/12 06:37:32;;;;;;;7.90;6.37;;;;;;;;;;741546;187;636814;-60
2023/07/12 06:39:58;;;;;;;15.37;7.30;;;;;;;;;;746223;188;628631;-58
2023/07/12 06:42:24;;;;;;;9.00;7.07;;;;;;;;;;738890;188;619219;-57
2023/07/12 06:44:50;;;;;;;13.83;6.70;;;;;;;;;;741032;189;627927;-58
2023/07/12 06:47:16;;;;;;;7.77;6.03;;;;;;;;;;742748;189;633420;-60
2023/07/12 06:49:41;;;;;;;9.37;6.90;;;;;;;;;;721643;191;619369;-60
2023/07/12 06:52:07;;;;;;;9.00;6.30;;;;;;;;;;719897;193;625177;-60
2023/07/12 06:54:33;;;;;;;8.30;6.80;;;;;;;;;;723088;194;618051;-60
2023/07/12 06:56:59;;;;;;;8.90;7.20;;;;;;;;;;721322;194;641626;-60
2023/07/12 06:59:25;;;;;;;10.73;7.00;;;;;;;;;;721860;191;626550;-57
2023/07/12 07:01:51;;;;;;;9.87;7.10;;;;;;;;;;740480;185;628225;-58
2023/07/12 07:04:16;;;;;;;8.87;6.70;;;;;;;;;;750113;187;629337;-58
2023/07/12 07:06:42;;;;;;;10.90;7.40;;;;;;;;;;742615;187;646098;-57
2023/07/12 07:09:08;;;;;;;12.33;7.47;;;;;;;;;;736344;188;630705;-58
2023/07/12 07:11:34;;;;;;;8.20;6.60;;;;;;;;;;743953;188;624461;-57
2023/07/12 07:14:00;;;;;;;12.60;7.00;;;;;;;;;;715073;195;819177;-60
2023/07/12 07:16:26;;;;;;;10.90;7.00;;;;;;;;;;713749;194;623147;-59
2023/07/12 07:18:51;;;;;;;9.70;6.60;;;;;;;;;;720852;195;616334;-57
2023/07/12 07:21:17;;;;;;;8.60;6.43;;;;;;;;;;735690;189;621645;-57
2023/07/12 07:23:43;;;;;;;9.47;6.70;;;;;;;;;;722442;190;614233;-58
2023/07/12 07:26:09;;;;;;;9.00;6.37;;;;;;;;;;744247;187;636297;-63
2023/07/12 07:28:35;;;;;;;10.87;6.77;;;;;;;;;;740542;187;633712;-57
2023/07/12 07:31:02;;;;;;;7.73;6.43;;;;;;;;;;739140;189;635769;-57
2023/07/12 07:33:27;;;;;;;8.33;6.20;;;;;;;;;;739194;189;620781;-57
2023/07/12 07:35:52;;;;;;;8.07;6.83;;;;;;;;;;742872;189;624423;-58
2023/07/12 07:38:18;;;;;;;6.93;6.03;;;;;;;;;;743569;187;633426;-57
2023/07/12 07:40:44;;;;;;;7.90;6.10;;;;;;;;;;739419;187;638108;-60
2023/07/12 07:43:10;;;;;;;12.27;6.57;;;;;;;;;;743602;189;628159;-58
2023/07/12 07:45:36;;;;;;;7.67;6.10;;;;;;;;;;740661;187;631347;-57
2023/07/12 07:48:02;;;;;;;9.77;6.12;;;;;;;;;;717848;194;617742;-57
2023/07/12 07:50:28;;;;;;;10.18;6.35;;;;;;;;;;726810;191;623799;-58
2023/07/12 07:52:54;;;;;;;8.77;6.47;;;;;;;;;;712285;196;623217;-60
2023/07/12 07:55:20;;;;;;;9.20;6.40;;;;;;;;;;735269;187;622944;-59
2023/07/12 07:57:45;;;;;;;12.50;6.60;;;;;;;;;;740369;189;636780;-58
2023/07/12 08:00:13;;;;;;;12.93;6.20;;;;;;;;;;741597;188;622378;-59
2023/07/12 08:02:38;;;;;;;8.53;5.60;;;;;;;;;;733045;189;626519;-57
2023/07/12 08:05:04;;;;;;;9.30;6.40;;;;;;;;;;730236;192;623232;-59
2023/07/12 08:07:29;;;;;;;8.60;6.40;;;;;;;;;;731418;192;649218;-57
2023/07/12 08:09:55;;;;;;;9.80;6.77;;;;;;;;;;716265;195;653094;-58
2023/07/12 08:12:21;;;;;;;8.63;6.87;;;;;;;;;;739021;189;647447;-57
2023/07/12 08:14:47;;;;;;;7.53;6.10;;;;;;;;;;745239;188;616653;-59
2023/07/12 08:17:13;;;;;;;7.50;6.20;;;;;;;;;;744122;187;628983;-59
2023/07/12 08:19:39;;;;;;;9.97;6.50;;;;;;;;;;739045;189;627150;-58
2023/07/12 08:22:04;;;;;;;8.37;6.80;;;;;;;;;;744435;188;625742;-58
2023/07/12 08:24:30;;;;;;;9.83;6.10;;;;;;;;;;744736;188;616215;-59
2023/07/12 08:26:56;;;;;;;12.10;6.77;;;;;;;;;;738747;188;626058;-58
2023/07/12 08:29:22;;;;;;;10.30;6.87;;;;;;;;;;721356;194;629674;-58
2023/07/12 08:31:48;;;;;;;13.73;7.67;;;;;;;;;;738640;191;635311;-58
2023/07/12 08:34:14;;;;;;;8.40;6.50;;;;;;;;;;732642;189;623579;-58
2023/07/12 08:36:40;;;;;;;10.00;6.23;;;;;;;;;;736317;190;629253;-57
2023/07/12 08:39:05;;;;;;;7.83;6.47;;;;;;;;;;743606;188;619224;-58
2023/07/12 08:41:31;;;;;;;9.27;6.70;;;;;;;;;;743896;187;628489;-58
2023/07/12 08:43:57;;;;;;;11.23;7.40;;;;;;;;;;737036;189;919610;-59
2023/07/12 08:46:23;;;;;;;9.70;6.83;;;;;;;;;;741926;187;914678;-58
2023/07/12 08:48:51;;;;;;;9.00;6.17;;;;;;;;;;737140;188;625903;-60
2023/07/12 08:51:15;;;;;;;8.10;7.10;;;;;;;;;;748752;186;795851;-59
2023/07/12 08:53:41;;;;;;;8.55;6.78;;;;;;;;;;742955;185;855788;-60
2023/07/12 08:56:07;;;;;;;10.30;7.13;;;;;;;;;;743301;188;628748;-58
2023/07/12 08:58:33;;;;;;;14.93;7.10;;;;;;;;;;739426;188;613315;-59
2023/07/12 09:01:02;;;;;;;12.67;6.90;;;;;;;;;;744428;188;630277;-59
2023/07/12 09:03:28;;;;;;;9.57;6.22;;;;;;;;;;743842;189;635590;-61
2023/07/12 09:05:54;;;;;;;9.27;6.83;;;;;;;;;;718828;195;622531;-58
2023/07/12 09:08:25;;;;;;;7.67;6.00;;;;;;;;;;728777;190;631168;-60
2023/07/12 09:10:50;;;;;;;10.80;7.10;;;;;;;;;;729705;190;632834;-58
2023/07/12 09:13:16;;;;;;;8.57;7.23;;;;;;;;;;732036;191;680512;-58
2023/07/12 09:15:46;;;;;;;8.73;6.90;;;;;;;;;;715319;194;637866;-58
2023/07/12 09:18:18;;;;;;;9.60;7.27;;;;;;;;;;738826;187;648797;-60
2023/07/12 09:20:44;;;;;;;8.53;6.23;;;;;;;;;;740650;188;817496;-59
2023/07/12 09:23:10;;;;;;;12.63;7.00;;;;;;;;;;738043;188;617297;-58
2023/07/12 09:25:35;;;;;;;9.90;6.70;;;;;;;;;;737269;189;917721;-59
2023/07/12 09:28:01;;;;;;;10.13;6.83;;;;;;;;;;722886;193;816301;-59
2023/07/12 09:30:27;;;;;;;10.77;7.00;;;;;;;;;;725551;194;640167;-60
2023/07/12 09:32:53;;;;;;;9.73;5.80;;;;;;;;;;723377;191;625296;-60
2023/07/12 09:35:21;;;;;;;7.90;6.80;;;;;;;;;;719656;191;766535;-57
2023/07/12 09:37:47;;;;;;;9.47;7.37;;;;;;;;;;722686;191;863907;-58
2023/07/12 09:40:14;;;;;;;11.60;5.73;;;;;;;;;;751772;185;633540;-58
2023/07/12 09:42:40;;;;;;;9.33;6.77;;;;;;;;;;735667;188;628445;-58
2023/07/12 09:45:06;;;;;;;13.23;7.40;;;;;;;;;;737476;189;815354;-57
2023/07/12 09:47:46;;;;;;;8.70;6.77;;;;;;;;;;743021;188;871609;-60
2023/07/12 09:50:21;;;;;;;9.23;6.73;;;;;;;;;;736749;189;919355;-57
2023/07/12 09:53:02;;;;;;;14.60;7.00;;;;;;;;;;745647;186;919319;-58
2023/07/12 09:55:31;;;;;;;9.97;6.70;;;;;;;;;;730834;187;919105;-58
2023/07/12 09:57:57;;;;;;;7.67;5.40;;;;;;;;;;736255;187;930584;-58
2023/07/12 10:00:26;;;;;;;11.33;7.20;;;;;;;;;;735291;187;871276;-60
2023/07/12 10:02:57;;;;;;;13.63;7.27;;;;;;;;;;739581;189;630011;-61
2023/07/12 10:05:23;;;;;;;9.93;6.50;;;;;;;;;;744714;187;629781;-60
2023/07/12 10:07:53;;;;;;;12.37;7.87;;;;;;;;;;739955;188;626548;-61
2023/07/12 10:10:22;;;;;;;10.43;6.93;;;;;;;;;;741559;187;635769;-61
2023/07/12 10:12:51;;;;;;;11.27;7.20;;;;;;;;;;739107;189;628919;-62
2023/07/12 10:15:17;;;;;;;9.90;7.93;;;;;;;;;;744941;187;654288;-61
2023/07/12 10:17:43;;;;;;;17.57;8.50;;;;;;;;;;738830;187;633654;-59
2023/07/12 10:20:09;;;;;;;12.67;8.07;;;;;;;;;;740544;187;623838;-61
2023/07/12 10:22:35;;;;;;;11.43;8.30;;;;;;;;;;749119;187;636219;-59
2023/07/12 10:25:01;;;;;;;12.30;8.13;;;;;;;;;;737207;188;618914;-62
2023/07/12 10:27:29;;;;;;;8.63;7.73;;;;;;;;;;738307;189;621783;-61
2023/07/12 10:29:57;;;;;;;13.17;8.60;;;;;;;;;;746473;188;614592;-59
2023/07/12 10:32:21;;;;;;;10.93;8.20;;;;;;;;;;743090;187;624363;-61
2023/07/12 10:34:47;;;;;;;15.10;8.37;;;;;;;;;;743184;187;615237;-61
2023/07/12 10:37:13;;;;;;;11.95;7.65;;;;;;;;;;742321;187;618968;-61
2023/07/12 10:39:39;;;;;;;11.87;8.53;;;;;;;;;;734919;188;617262;-62
2023/07/12 10:42:06;;;;;;;10.03;8.53;;;;;;;;;;742354;187;636588;-61
2023/07/12 10:44:33;;;;;;;9.63;8.33;;;;;;;;;;744996;187;646997;-62
2023/07/12 10:46:58;;;;;;;11.10;8.57;;;;;;;;;;746466;187;617994;-59
2023/07/12 10:49:30;;;;;;;17.87;9.27;;;;;;;;;;737786;187;638691;-59
2023/07/12 10:52:02;;;;;;;9.70;8.07;;;;;;;;;;739980;189;818777;-60
2023/07/12 10:54:44;;;;;;;10.07;7.77;;;;;;;;;;739170;188;920647;-60
2023/07/12 10:57:15;;;;;;;11.33;7.53;;;;;;;;;;741120;188;817858;-62
2023/07/12 10:59:40;;;;;;;11.00;7.60;;;;;;;;;;741413;188;917074;-62
2023/07/12 11:02:09;;;;;;;9.20;8.30;;;;;;;;;;737707;189;898630;-62
2023/07/12 11:04:35;;;;;;;11.83;8.60;;;;;;;;;;737819;189;919827;-60
2023/07/12 11:07:16;;;;;;;13.40;8.53;;;;;;;;;;745568;186;627832;-60
2023/07/12 11:09:58;;;;;;;9.03;7.70;;;;;;;;;;742104;187;630356;-61
2023/07/12 11:12:36;;;;;;;14.43;8.40;;;;;;;;;;747537;186;632129;-60
2023/07/12 11:15:18;;;;;;;10.77;8.40;;;;;;;;;;745966;185;622988;-60
2023/07/12 11:17:46;;;;;;;13.50;9.50;;;;;;;;;;741247;188;918673;-59
2023/07/12 11:20:12;;;;;;;13.27;8.50;;;;;;;;;;741689;187;868944;-59
2023/07/12 11:22:47;;;;;;;9.10;8.20;;;;;;;;;;734649;188;818374;-61
2023/07/12 11:25:21;;;;;;;8.23;7.33;;;;;;;;;;742880;187;816734;-61
2023/07/12 11:27:59;;;;;;;14.90;8.57;;;;;;;;;;710253;194;920311;-63
2023/07/12 11:30:43;;;;;;;13.30;8.67;;;;;;;;;;722691;192;922741;-60
2023/07/12 11:33:15;;;;;;;9.90;7.20;;;;;;;;;;737917;187;888086;-62
2023/07/12 11:35:43;;;;;;;13.37;8.63;;;;;;;;;;741251;187;622743;-59
2023/07/12 11:38:08;;;;;;;10.20;7.80;;;;;;;;;;745352;187;616912;-59
2023/07/12 11:40:35;;;;;;;12.87;8.23;;;;;;;;;;736921;188;629563;-59
2023/07/12 11:43:05;;;;;;;11.73;8.40;;;;;;;;;;744366;189;619020;-64
2023/07/12 11:45:31;;;;;;;9.37;8.37;;;;;;;;;;744602;187;609094;-63
2023/07/12 11:47:57;;;;;;;9.37;7.10;;;;;;;;;;744353;187;617029;-59
2023/07/12 11:50:23;;;;;;;9.80;7.13;;;;;;;;;;740256;188;637120;-61
2023/07/12 11:52:49;;;;;;;8.90;8.00;;;;;;;;;;734064;190;619884;-63
2023/07/12 11:55:15;;;;;;;9.67;8.10;;;;;;;;;;720518;195;618917;-63
2023/07/12 11:57:41;;;;;;;10.07;7.33;;;;;;;;;;711983;194;626091;-61
2023/07/12 12:00:17;;;;;;;9.50;7.53;;;;;;;;;;728283;191;630192;-62
2023/07/12 12:02:43;;;;;;;9.30;7.27;;;;;;;;;;724999;192;639125;-63
2023/07/12 12:05:13;;;;;;;14.67;7.30;;;;;;;;;;723965;192;630691;-63
2023/07/12 12:07:39;;;;;;;8.97;7.00;;;;;;;;;;724592;191;624946;-61
2023/07/12 12:10:05;;;;;;;8.47;7.30;;;;;;;;;;722703;191;632526;-60
2023/07/12 12:12:31;;;;;;;7.60;5.40;;;;;;;;;;728384;190;619829;-60
2023/07/12 12:14:57;;;;;;;6.63;5.97;;;;;;;;;;743131;187;635377;-63
2023/07/12 12:17:23;;;;;;;7.33;6.37;;;;;;;;;;736137;187;637091;-63
2023/07/12 12:19:49;;;;;;;8.60;6.33;;;;;;;;;;743055;187;632135;-62
2023/07/12 12:22:15;;;;;;;7.27;5.77;;;;;;;;;;740701;188;614945;-62
2023/07/12 12:24:41;;;;;;;9.40;6.00;;;;;;;;;;733667;188;644828;-63
2023/07/12 12:27:08;;;;;;;8.77;5.97;;;;;;;;;;745077;189;628218;-63
2023/07/12 12:29:34;;;;;;;8.80;6.03;;;;;;;;;;735582;187;636200;-59
2023/07/12 12:32:02;;;;;;;8.03;6.63;;;;;;;;;;744870;187;624808;-62
2023/07/12 12:34:27;;;;;;;10.30;7.20;;;;;;;;;;742549;187;628037;-60
2023/07/12 12:36:56;;;;;;;13.33;5.60;;;;;;;;;;735404;189;617407;-59
2023/07/12 12:39:22;;;;;;;10.83;7.63;;;;;;;;;;731405;189;814043;-62
2023/07/12 12:41:49;;;;;;;6.60;5.90;;;;;;;;;;738671;189;879653;-63
2023/07/12 12:44:15;;;;;;;9.37;6.47;;;;;;;;;;721426;194;621169;-59
2023/07/12 12:46:41;;;;;;;9.97;5.87;;;;;;;;;;712955;196;616710;-62
2023/07/12 12:49:13;;;;;;;8.93;6.10;;;;;;;;;;734134;188;626841;-62
2023/07/12 12:51:39;;;;;;;9.50;6.77;;;;;;;;;;739490;187;625227;-60
2023/07/12 12:54:04;;;;;;;14.43;6.80;;;;;;;;;;746111;188;634427;-60
2023/07/12 12:56:30;;;;;;;12.87;8.13;;;;;;;;;;740698;187;623578;-59
2023/07/12 12:58:56;;;;;;;8.80;7.10;;;;;;;;;;739537;188;626703;-63
2023/07/12 13:01:22;;;;;;;9.50;6.97;;;;;;;;;;746997;187;621445;-59
2023/07/12 13:03:48;;;;;;;9.43;5.77;;;;;;;;;;748522;184;631225;-62
2023/07/12 13:06:15;;;;;;;9.13;6.80;;;;;;;;;;744541;186;619181;-60
2023/07/12 13:08:41;;;;;;;9.37;6.37;;;;;;;;;;742788;187;631284;-62
2023/07/12 13:11:07;;;;;;;7.97;7.10;;;;;;;;;;733272;191;634952;-62
2023/07/12 13:13:33;;;;;;;6.87;5.90;;;;;;;;;;747872;187;624098;-60
2023/07/12 13:15:59;;;;;;;8.15;5.45;;;;;;;;;;738619;187;815681;-60
2023/07/12 13:18:25;;;;;;;10.60;6.93;;;;;;;;;;741128;188;934132;-63
2023/07/12 13:20:52;;;;;;;7.33;6.50;;;;;;;;;;740400;188;814709;-63
2023/07/12 13:23:16;;;;;;;7.10;5.60;;;;;;;;;;742409;188;623576;-60
2023/07/12 13:25:44;;;;;;;11.93;7.10;;;;;;;;;;743476;189;623616;-60
2023/07/12 13:28:08;;;;;;;10.30;6.53;;;;;;;;;;731476;192;624582;-63
2023/07/12 13:30:38;;;;;;;12.03;6.07;;;;;;;;;;716180;193;637830;-60
2023/07/12 13:33:00;;;;;;;7.53;5.67;;;;;;;;;;749707;187;630644;-64
2023/07/12 13:35:26;;;;;;;6.83;5.37;;;;;;;;;;739564;188;620297;-63
2023/07/12 13:37:52;;;;;;;5.87;4.90;;;;;;;;;;741048;188;619221;-60
2023/07/12 13:40:17;;;;;;;5.10;4.60;;;;;;;;;;739383;187;916237;-63
2023/07/12 13:42:44;;;;;;;8.30;4.87;;;;;;;;;;747736;187;919673;-63
2023/07/12 13:45:11;;;;;;;7.00;4.53;;;;;;;;;;740660;187;917978;-59
2023/07/12 13:47:36;;;;;;;6.27;4.60;;;;;;;;;;746034;187;918920;-63
2023/07/12 13:50:05;;;;;;;6.73;4.27;;;;;;;;;;741511;187;919753;-59
2023/07/12 13:52:30;;;;;;;4.90;4.10;;;;;;;;;;734836;187;915430;-59
2023/07/12 13:54:54;;;;;;;6.60;4.40;;;;;;;;;;728753;187;919692;-59
2023/07/12 13:57:20;;;;;;;5.77;4.03;;;;;;;;;;738308;189;915606;-59
2023/07/12 13:59:46;;;;;;;10.93;5.20;;;;;;;;;;742288;187;938832;-63
2023/07/12 14:02:17;;;;;;;4.73;3.97;;;;;;;;;;733401;187;918883;-63
2023/07/12 14:04:43;;;;;;;6.53;4.17;;;;;;;;;;738492;188;918436;-63
2023/07/12 14:07:10;;;;;;;5.93;4.20;;;;;;;;;;744463;188;814138;-59
2023/07/12 14:09:36;;;;;;;7.10;4.00;;;;;;;;;;736297;189;918907;-60
2023/07/12 14:12:02;;;;;;;5.50;4.20;;;;;;;;;;736888;189;915362;-63
2023/07/12 14:14:28;;;;;;;10.03;3.93;;;;;;;;;;742694;188;919182;-64
2023/07/12 14:16:54;;;;;;;4.50;3.37;;;;;;;;;;752609;186;638780;-62
2023/07/12 14:19:20;;;;;;;6.27;3.80;;;;;;;;;;719607;194;619712;-59